sensor_id;sensor_type;location;lat;lon;timestamp;P1;durP1;ratioP1;P2;durP2;ratioP2
17872;SDS011;36318;42.620;23.338;2022-09-27T00:00:34;17.03;;;15.37;;
17872;SDS011;36318;42.620;23.338;2022-09-27T00:03:00;17.60;;;15.90;;
17872;SDS011;36318;42.620;23.338;2022-09-27T00:05:27;18.13;;;16.33;;
17872;SDS011;36318;42.620;23.338;2022-09-27T00:07:54;17.43;;;15.07;;
17872;SDS011;36318;42.620;23.338;2022-09-27T00:10:21;16.77;;;15.10;;
17872;SDS011;36318;42.620;23.338;2022-09-27T00:12:47;15.10;;;13.70;;
17872;SDS011;36318;42.620;23.338;2022-09-27T00:15:14;15.37;;;13.77;;
17872;SDS011;36318;42.620;23.338;2022-09-27T00:17:42;14.70;;;13.30;;
17872;SDS011;36318;42.620;23.338;2022-09-27T00:20:09;15.00;;;13.40;;
17872;SDS011;36318;42.620;23.338;2022-09-27T00:22:36;14.40;;;13.03;;
17872;SDS011;36318;42.620;23.338;2022-09-27T00:25:02;13.80;;;12.40;;
17872;SDS011;36318;42.620;23.338;2022-09-27T00:27:31;14.00;;;12.60;;
17872;SDS011;36318;42.620;23.338;2022-09-27T00:29:58;15.07;;;13.10;;
17872;SDS011;36318;42.620;23.338;2022-09-27T00:32:25;14.87;;;13.47;;
17872;SDS011;36318;42.620;23.338;2022-09-27T00:34:53;14.10;;;12.70;;
17872;SDS011;36318;42.620;23.338;2022-09-27T00:37:19;14.60;;;13.03;;
17872;SDS011;36318;42.620;23.338;2022-09-27T00:39:46;13.10;;;11.80;;
17872;SDS011;36318;42.620;23.338;2022-09-27T00:42:12;13.30;;;11.80;;
17872;SDS011;36318;42.620;23.338;2022-09-27T00:47:26;13.67;;;12.37;;
17872;SDS011;36318;42.620;23.338;2022-09-27T00:49:55;12.57;;;11.37;;
17872;SDS011;36318;42.620;23.338;2022-09-27T00:52:24;15.67;;;13.03;;
17872;SDS011;36318;42.620;23.338;2022-09-27T00:54:53;12.70;;;11.40;;
17872;SDS011;36318;42.620;23.338;2022-09-27T00:57:21;13.77;;;11.60;;
17872;SDS011;36318;42.620;23.338;2022-09-27T00:59:48;12.87;;;11.57;;
17872;SDS011;36318;42.620;23.338;2022-09-27T01:02:16;15.03;;;11.83;;
17872;SDS011;36318;42.620;23.338;2022-09-27T01:04:43;12.90;;;11.60;;
17872;SDS011;36318;42.620;23.338;2022-09-27T01:07:13;12.90;;;11.70;;
17872;SDS011;36318;42.620;23.338;2022-09-27T01:09:39;15.20;;;11.53;;
17872;SDS011;36318;42.620;23.338;2022-09-27T01:12:07;11.57;;;10.37;;
17872;SDS011;36318;42.620;23.338;2022-09-27T01:14:47;11.00;;;10.00;;
17872;SDS011;36318;42.620;23.338;2022-09-27T01:17:21;11.57;;;10.43;;
17872;SDS011;36318;42.620;23.338;2022-09-27T01:22:35;11.03;;;9.90;;
17872;SDS011;36318;42.620;23.338;2022-09-27T01:25:06;14.40;;;11.00;;
17872;SDS011;36318;42.620;23.338;2022-09-27T01:27:44;13.13;;;10.63;;
17872;SDS011;36318;42.620;23.338;2022-09-27T01:30:26;11.27;;;9.90;;
17872;SDS011;36318;42.620;23.338;2022-09-27T01:33:08;11.13;;;10.13;;
17872;SDS011;36318;42.620;23.338;2022-09-27T01:35:41;13.20;;;10.33;;
17872;SDS011;36318;42.620;23.338;2022-09-27T01:38:14;12.53;;;10.57;;
17872;SDS011;36318;42.620;23.338;2022-09-27T01:40:46;11.50;;;10.40;;
17872;SDS011;36318;42.620;23.338;2022-09-27T01:43:15;12.47;;;11.17;;
17872;SDS011;36318;42.620;23.338;2022-09-27T01:45:46;14.07;;;12.17;;
17872;SDS011;36318;42.620;23.338;2022-09-27T01:48:17;13.13;;;11.73;;
17872;SDS011;36318;42.620;23.338;2022-09-27T01:50:46;14.00;;;10.87;;
17872;SDS011;36318;42.620;23.338;2022-09-27T01:53:16;11.83;;;10.63;;
17872;SDS011;36318;42.620;23.338;2022-09-27T01:55:44;12.03;;;10.63;;
17872;SDS011;36318;42.620;23.338;2022-09-27T01:58:14;11.07;;;10.13;;
17872;SDS011;36318;42.620;23.338;2022-09-27T02:00:42;14.30;;;10.87;;
17872;SDS011;36318;42.620;23.338;2022-09-27T02:03:12;13.13;;;11.80;;
17872;SDS011;36318;42.620;23.338;2022-09-27T02:05:42;13.50;;;11.10;;
17872;SDS011;36318;42.620;23.338;2022-09-27T02:08:11;12.30;;;11.17;;
17872;SDS011;36318;42.620;23.338;2022-09-27T02:10:40;12.50;;;11.30;;
17872;SDS011;36318;42.620;23.338;2022-09-27T02:13:11;13.13;;;11.37;;
17872;SDS011;36318;42.620;23.338;2022-09-27T02:15:45;13.13;;;11.83;;
17872;SDS011;36318;42.620;23.338;2022-09-27T02:18:15;12.70;;;11.50;;
17872;SDS011;36318;42.620;23.338;2022-09-27T02:20:43;14.00;;;11.97;;
17872;SDS011;36318;42.620;23.338;2022-09-27T02:23:13;13.63;;;12.30;;
17872;SDS011;36318;42.620;23.338;2022-09-27T02:25:41;11.97;;;10.83;;
17872;SDS011;36318;42.620;23.338;2022-09-27T02:28:12;12.53;;;11.33;;
17872;SDS011;36318;42.620;23.338;2022-09-27T02:30:41;13.70;;;12.30;;
17872;SDS011;36318;42.620;23.338;2022-09-27T02:33:08;12.80;;;11.60;;
17872;SDS011;36318;42.620;23.338;2022-09-27T02:35:36;12.73;;;11.57;;
17872;SDS011;36318;42.620;23.338;2022-09-27T02:38:03;12.73;;;11.43;;
17872;SDS011;36318;42.620;23.338;2022-09-27T02:40:31;11.80;;;10.70;;
17872;SDS011;36318;42.620;23.338;2022-09-27T02:42:58;12.67;;;7.60;;
17872;SDS011;36318;42.620;23.338;2022-09-27T02:45:25;8.20;;;7.50;;
17872;SDS011;36318;42.620;23.338;2022-09-27T02:47:59;6.93;;;6.23;;
17872;SDS011;36318;42.620;23.338;2022-09-27T02:53:15;9.70;;;8.70;;
17872;SDS011;36318;42.620;23.338;2022-09-27T02:55:48;11.70;;;10.47;;
17872;SDS011;36318;42.620;23.338;2022-09-27T02:58:20;83.43;;;16.30;;
17872;SDS011;36318;42.620;23.338;2022-09-27T03:00:51;13.47;;;12.20;;
17872;SDS011;36318;42.620;23.338;2022-09-27T03:03:23;11.63;;;10.43;;
17872;SDS011;36318;42.620;23.338;2022-09-27T03:05:53;11.53;;;10.53;;
17872;SDS011;36318;42.620;23.338;2022-09-27T03:08:21;14.43;;;12.83;;
17872;SDS011;36318;42.620;23.338;2022-09-27T03:10:48;13.60;;;12.33;;
17872;SDS011;36318;42.620;23.338;2022-09-27T03:13:14;13.77;;;12.33;;
17872;SDS011;36318;42.620;23.338;2022-09-27T03:15:41;237.43;;;25.50;;
17872;SDS011;36318;42.620;23.338;2022-09-27T03:18:07;144.20;;;18.60;;
17872;SDS011;36318;42.620;23.338;2022-09-27T03:20:34;288.43;;;25.57;;
17872;SDS011;36318;42.620;23.338;2022-09-27T03:23:01;163.30;;;19.47;;
17872;SDS011;36318;42.620;23.338;2022-09-27T03:25:29;32.67;;;14.97;;
17872;SDS011;36318;42.620;23.338;2022-09-27T03:27:55;14.00;;;12.70;;
17872;SDS011;36318;42.620;23.338;2022-09-27T03:30:22;13.00;;;11.80;;
17872;SDS011;36318;42.620;23.338;2022-09-27T03:32:48;15.40;;;13.63;;
17872;SDS011;36318;42.620;23.338;2022-09-27T03:35:15;14.17;;;12.87;;
17872;SDS011;36318;42.620;23.338;2022-09-27T03:37:41;17.53;;;12.50;;
17872;SDS011;36318;42.620;23.338;2022-09-27T03:40:08;14.67;;;13.27;;
17872;SDS011;36318;42.620;23.338;2022-09-27T03:42:36;14.07;;;12.60;;
17872;SDS011;36318;42.620;23.338;2022-09-27T03:45:03;13.67;;;12.37;;
17872;SDS011;36318;42.620;23.338;2022-09-27T03:47:29;13.07;;;11.70;;
17872;SDS011;36318;42.620;23.338;2022-09-27T03:49:56;13.43;;;12.13;;
17872;SDS011;36318;42.620;23.338;2022-09-27T03:52:22;13.33;;;12.03;;
17872;SDS011;36318;42.620;23.338;2022-09-27T03:54:49;13.67;;;12.37;;
17872;SDS011;36318;42.620;23.338;2022-09-27T03:57:16;12.23;;;10.67;;
17872;SDS011;36318;42.620;23.338;2022-09-27T03:59:43;10.97;;;9.87;;
17872;SDS011;36318;42.620;23.338;2022-09-27T04:02:10;10.90;;;9.90;;
17872;SDS011;36318;42.620;23.338;2022-09-27T04:04:36;12.10;;;10.83;;
17872;SDS011;36318;42.620;23.338;2022-09-27T04:07:03;11.30;;;10.30;;
17872;SDS011;36318;42.620;23.338;2022-09-27T04:09:29;10.50;;;9.50;;
17872;SDS011;36318;42.620;23.338;2022-09-27T04:11:56;11.47;;;10.37;;
17872;SDS011;36318;42.620;23.338;2022-09-27T04:14:23;14.17;;;9.50;;
17872;SDS011;36318;42.620;23.338;2022-09-27T04:16:51;10.30;;;9.30;;
17872;SDS011;36318;42.620;23.338;2022-09-27T04:19:17;9.57;;;8.47;;
17872;SDS011;36318;42.620;23.338;2022-09-27T04:21:44;9.73;;;8.73;;
17872;SDS011;36318;42.620;23.338;2022-09-27T04:24:10;10.70;;;9.20;;
17872;SDS011;36318;42.620;23.338;2022-09-27T04:26:37;10.60;;;7.80;;
17872;SDS011;36318;42.620;23.338;2022-09-27T04:29:04;8.37;;;7.50;;
17872;SDS011;36318;42.620;23.338;2022-09-27T04:31:30;10.00;;;9.00;;
17872;SDS011;36318;42.620;23.338;2022-09-27T04:33:58;8.87;;;7.97;;
17872;SDS011;36318;42.620;23.338;2022-09-27T04:36:25;9.67;;;8.77;;
17872;SDS011;36318;42.620;23.338;2022-09-27T04:38:51;9.77;;;8.83;;
17872;SDS011;36318;42.620;23.338;2022-09-27T04:41:18;9.50;;;8.67;;
17872;SDS011;36318;42.620;23.338;2022-09-27T04:43:47;11.37;;;9.63;;
17872;SDS011;36318;42.620;23.338;2022-09-27T04:46:14;11.30;;;10.10;;
17872;SDS011;36318;42.620;23.338;2022-09-27T04:48:40;12.13;;;11.03;;
17872;SDS011;36318;42.620;23.338;2022-09-27T04:51:09;13.10;;;11.50;;
17872;SDS011;36318;42.620;23.338;2022-09-27T04:53:36;18.17;;;13.00;;
17872;SDS011;36318;42.620;23.338;2022-09-27T04:56:02;39.20;;;16.80;;
17872;SDS011;36318;42.620;23.338;2022-09-27T04:58:30;18.40;;;16.23;;
17872;SDS011;36318;42.620;23.338;2022-09-27T05:00:57;273.37;;;29.73;;
17872;SDS011;36318;42.620;23.338;2022-09-27T05:03:24;274.93;;;28.60;;
17872;SDS011;36318;42.620;23.338;2022-09-27T05:05:50;24.73;;;17.23;;
17872;SDS011;36318;42.620;23.338;2022-09-27T05:08:19;21.37;;;16.90;;
17872;SDS011;36318;42.620;23.338;2022-09-27T05:10:46;19.27;;;17.30;;
17872;SDS011;36318;42.620;23.338;2022-09-27T05:13:12;18.17;;;16.47;;
17872;SDS011;36318;42.620;23.338;2022-09-27T05:15:39;18.03;;;14.63;;
17872;SDS011;36318;42.620;23.338;2022-09-27T05:18:06;16.03;;;14.43;;
17872;SDS011;36318;42.620;23.338;2022-09-27T05:20:34;15.87;;;14.37;;
17872;SDS011;36318;42.620;23.338;2022-09-27T05:23:00;15.73;;;14.07;;
17872;SDS011;36318;42.620;23.338;2022-09-27T05:25:30;14.83;;;13.50;;
17872;SDS011;36318;42.620;23.338;2022-09-27T05:27:57;13.60;;;12.40;;
17872;SDS011;36318;42.620;23.338;2022-09-27T05:30:23;13.43;;;12.03;;
17872;SDS011;36318;42.620;23.338;2022-09-27T05:32:50;13.20;;;12.00;;
17872;SDS011;36318;42.620;23.338;2022-09-27T05:35:17;15.40;;;14.00;;
17872;SDS011;36318;42.620;23.338;2022-09-27T05:37:49;17.20;;;14.53;;
17872;SDS011;36318;42.620;23.338;2022-09-27T05:40:16;17.13;;;15.40;;
17872;SDS011;36318;42.620;23.338;2022-09-27T05:42:44;16.80;;;15.20;;
17872;SDS011;36318;42.620;23.338;2022-09-27T05:45:10;17.37;;;15.67;;
17872;SDS011;36318;42.620;23.338;2022-09-27T05:47:37;17.83;;;15.70;;
17872;SDS011;36318;42.620;23.338;2022-09-27T05:50:03;17.67;;;15.97;;
17872;SDS011;36318;42.620;23.338;2022-09-27T05:52:31;17.63;;;15.93;;
17872;SDS011;36318;42.620;23.338;2022-09-27T05:54:57;16.17;;;14.60;;
17872;SDS011;36318;42.620;23.338;2022-09-27T05:57:24;13.60;;;11.50;;
17872;SDS011;36318;42.620;23.338;2022-09-27T05:59:52;14.20;;;12.90;;
17872;SDS011;36318;42.620;23.338;2022-09-27T06:02:19;13.63;;;12.43;;
17872;SDS011;36318;42.620;23.338;2022-09-27T06:04:45;11.63;;;10.53;;
17872;SDS011;36318;42.620;23.338;2022-09-27T06:07:12;9.43;;;8.63;;
17872;SDS011;36318;42.620;23.338;2022-09-27T06:09:38;10.43;;;8.93;;
17872;SDS011;36318;42.620;23.338;2022-09-27T06:12:05;9.77;;;8.87;;
17872;SDS011;36318;42.620;23.338;2022-09-27T06:14:36;11.60;;;10.53;;
17872;SDS011;36318;42.620;23.338;2022-09-27T06:17:04;14.53;;;10.73;;
17872;SDS011;36318;42.620;23.338;2022-09-27T06:19:30;12.53;;;11.13;;
17872;SDS011;36318;42.620;23.338;2022-09-27T06:21:58;10.20;;;9.20;;
17872;SDS011;36318;42.620;23.338;2022-09-27T06:24:24;11.27;;;10.17;;
17872;SDS011;36318;42.620;23.338;2022-09-27T06:26:51;15.77;;;14.17;;
17872;SDS011;36318;42.620;23.338;2022-09-27T06:29:17;81.47;;;19.37;;
17872;SDS011;36318;42.620;23.338;2022-09-27T06:31:44;18.17;;;16.37;;
17872;SDS011;36318;42.620;23.338;2022-09-27T06:34:12;18.13;;;16.23;;
17872;SDS011;36318;42.620;23.338;2022-09-27T06:36:38;18.27;;;16.37;;
17872;SDS011;36318;42.620;23.338;2022-09-27T06:39:05;21.00;;;17.80;;
17872;SDS011;36318;42.620;23.338;2022-09-27T06:41:31;17.47;;;15.87;;
17872;SDS011;36318;42.620;23.338;2022-09-27T06:44:00;18.23;;;16.37;;
17872;SDS011;36318;42.620;23.338;2022-09-27T06:46:27;18.50;;;16.27;;
17872;SDS011;36318;42.620;23.338;2022-09-27T06:48:53;19.37;;;17.07;;
17872;SDS011;36318;42.620;23.338;2022-09-27T06:51:22;24.53;;;19.40;;
17872;SDS011;36318;42.620;23.338;2022-09-27T06:53:48;28.53;;;19.93;;
17872;SDS011;36318;42.620;23.338;2022-09-27T06:56:15;22.33;;;20.03;;
17872;SDS011;36318;42.620;23.338;2022-09-27T06:58:41;20.90;;;18.77;;
17872;SDS011;36318;42.620;23.338;2022-09-27T07:01:26;20.90;;;18.50;;
17872;SDS011;36318;42.620;23.338;2022-09-27T07:03:53;21.33;;;19.37;;
17872;SDS011;36318;42.620;23.338;2022-09-27T07:06:20;20.93;;;18.57;;
17872;SDS011;36318;42.620;23.338;2022-09-27T07:08:52;20.83;;;18.83;;
17872;SDS011;36318;42.620;23.338;2022-09-27T07:11:19;26.17;;;19.03;;
17872;SDS011;36318;42.620;23.338;2022-09-27T07:13:46;21.47;;;19.27;;
17872;SDS011;36318;42.620;23.338;2022-09-27T07:16:12;22.50;;;20.03;;
17872;SDS011;36318;42.620;23.338;2022-09-27T07:18:39;21.80;;;19.70;;
17872;SDS011;36318;42.620;23.338;2022-09-27T07:21:05;21.50;;;19.00;;
17872;SDS011;36318;42.620;23.338;2022-09-27T07:23:33;26.90;;;24.00;;
17872;SDS011;36318;42.620;23.338;2022-09-27T07:26:01;26.43;;;23.67;;
17872;SDS011;36318;42.620;23.338;2022-09-27T07:28:31;24.87;;;22.37;;
17872;SDS011;36318;42.620;23.338;2022-09-27T07:30:58;24.40;;;21.77;;
17872;SDS011;36318;42.620;23.338;2022-09-27T07:33:24;22.97;;;20.77;;
17872;SDS011;36318;42.620;23.338;2022-09-27T07:35:51;23.10;;;20.80;;
17872;SDS011;36318;42.620;23.338;2022-09-27T07:38:17;22.00;;;19.90;;
17872;SDS011;36318;42.620;23.338;2022-09-27T07:40:44;21.93;;;19.80;;
17872;SDS011;36318;42.620;23.338;2022-09-27T07:43:12;22.20;;;19.40;;
17872;SDS011;36318;42.620;23.338;2022-09-27T07:45:38;23.20;;;20.83;;
17872;SDS011;36318;42.620;23.338;2022-09-27T07:48:05;21.97;;;19.63;;
17872;SDS011;36318;42.620;23.338;2022-09-27T07:50:31;21.90;;;19.60;;
17872;SDS011;36318;42.620;23.338;2022-09-27T07:52:58;32.27;;;19.10;;
17872;SDS011;36318;42.620;23.338;2022-09-27T07:55:24;21.33;;;19.33;;
17872;SDS011;36318;42.620;23.338;2022-09-27T07:57:51;22.07;;;19.83;;
17872;SDS011;36318;42.620;23.338;2022-09-27T08:00:19;22.20;;;19.83;;
17872;SDS011;36318;42.620;23.338;2022-09-27T08:02:46;23.50;;;21.20;;
17872;SDS011;36318;42.620;23.338;2022-09-27T08:05:13;22.07;;;19.87;;
17872;SDS011;36318;42.620;23.338;2022-09-27T08:07:40;22.93;;;20.73;;
17872;SDS011;36318;42.620;23.338;2022-09-27T08:10:07;23.50;;;20.00;;
17872;SDS011;36318;42.620;23.338;2022-09-27T08:12:33;27.83;;;19.10;;
17872;SDS011;36318;42.620;23.338;2022-09-27T08:15:00;23.63;;;19.40;;
17872;SDS011;36318;42.620;23.338;2022-09-27T08:17:30;20.67;;;18.40;;
17872;SDS011;36318;42.620;23.338;2022-09-27T08:19:56;21.30;;;19.20;;
17872;SDS011;36318;42.620;23.338;2022-09-27T08:22:23;21.67;;;19.50;;
17872;SDS011;36318;42.620;23.338;2022-09-27T08:24:49;22.37;;;20.07;;
17872;SDS011;36318;42.620;23.338;2022-09-27T08:27:16;21.93;;;19.73;;
17872;SDS011;36318;42.620;23.338;2022-09-27T08:29:42;23.73;;;21.50;;
17872;SDS011;36318;42.620;23.338;2022-09-27T08:32:10;23.80;;;21.43;;
17872;SDS011;36318;42.620;23.338;2022-09-27T08:34:38;25.13;;;22.57;;
17872;SDS011;36318;42.620;23.338;2022-09-27T08:37:06;27.10;;;23.50;;
17872;SDS011;36318;42.620;23.338;2022-09-27T08:39:32;31.80;;;25.53;;
17872;SDS011;36318;42.620;23.338;2022-09-27T08:42:00;23.03;;;20.43;;
17872;SDS011;36318;42.620;23.338;2022-09-27T08:44:30;24.40;;;21.90;;
17872;SDS011;36318;42.620;23.338;2022-09-27T08:47:00;24.60;;;22.13;;
17872;SDS011;36318;42.620;23.338;2022-09-27T08:49:31;21.83;;;19.77;;
17872;SDS011;36318;42.620;23.338;2022-09-27T08:52:00;22.67;;;20.60;;
17872;SDS011;36318;42.620;23.338;2022-09-27T08:54:27;22.60;;;20.30;;
17872;SDS011;36318;42.620;23.338;2022-09-27T08:56:56;23.00;;;20.73;;
17872;SDS011;36318;42.620;23.338;2022-09-27T08:59:27;21.33;;;19.27;;
17872;SDS011;36318;42.620;23.338;2022-09-27T09:01:54;20.70;;;18.80;;
17872;SDS011;36318;42.620;23.338;2022-09-27T09:04:23;19.60;;;17.80;;
17872;SDS011;36318;42.620;23.338;2022-09-27T09:06:53;19.63;;;17.83;;
17872;SDS011;36318;42.620;23.338;2022-09-27T09:09:27;18.70;;;16.80;;
17872;SDS011;36318;42.620;23.338;2022-09-27T09:11:59;21.53;;;16.57;;
17872;SDS011;36318;42.620;23.338;2022-09-27T09:14:49;15.43;;;13.93;;
17872;SDS011;36318;42.620;23.338;2022-09-27T09:17:23;13.77;;;12.57;;
17872;SDS011;36318;42.620;23.338;2022-09-27T09:19:57;14.77;;;13.33;;
17872;SDS011;36318;42.620;23.338;2022-09-27T09:22:38;16.57;;;14.83;;
17872;SDS011;36318;42.620;23.338;2022-09-27T09:25:12;17.73;;;16.07;;
17872;SDS011;36318;42.620;23.338;2022-09-27T09:27:43;18.37;;;15.63;;
17872;SDS011;36318;42.620;23.338;2022-09-27T09:30:16;16.40;;;14.90;;
17872;SDS011;36318;42.620;23.338;2022-09-27T09:32:47;16.00;;;14.37;;
17872;SDS011;36318;42.620;23.338;2022-09-27T09:35:16;15.40;;;13.80;;
17872;SDS011;36318;42.620;23.338;2022-09-27T09:37:45;16.73;;;15.03;;
17872;SDS011;36318;42.620;23.338;2022-09-27T09:40:18;18.93;;;17.07;;
17872;SDS011;36318;42.620;23.338;2022-09-27T09:42:46;19.37;;;17.00;;
17872;SDS011;36318;42.620;23.338;2022-09-27T09:45:16;19.80;;;18.00;;
17872;SDS011;36318;42.620;23.338;2022-09-27T09:47:44;19.53;;;17.70;;
17872;SDS011;36318;42.620;23.338;2022-09-27T09:50:14;20.00;;;17.90;;
17872;SDS011;36318;42.620;23.338;2022-09-27T09:52:41;20.00;;;18.03;;
17872;SDS011;36318;42.620;23.338;2022-09-27T09:55:13;25.03;;;19.23;;
17872;SDS011;36318;42.620;23.338;2022-09-27T09:57:45;20.97;;;18.73;;
17872;SDS011;36318;42.620;23.338;2022-09-27T10:00:15;20.77;;;18.53;;
17872;SDS011;36318;42.620;23.338;2022-09-27T10:02:42;17.73;;;16.00;;
17872;SDS011;36318;42.620;23.338;2022-09-27T10:05:11;19.43;;;16.70;;
17872;SDS011;36318;42.620;23.338;2022-09-27T10:07:38;17.17;;;15.57;;
17872;SDS011;36318;42.620;23.338;2022-09-27T10:10:05;14.60;;;13.20;;
17872;SDS011;36318;42.620;23.338;2022-09-27T10:12:32;18.07;;;11.47;;
17872;SDS011;36318;42.620;23.338;2022-09-27T10:15:02;14.47;;;12.77;;
17872;SDS011;36318;42.620;23.338;2022-09-27T10:17:32;13.53;;;12.20;;
17872;SDS011;36318;42.620;23.338;2022-09-27T10:20:01;13.20;;;11.90;;
17872;SDS011;36318;42.620;23.338;2022-09-27T10:22:28;13.47;;;12.27;;
17872;SDS011;36318;42.620;23.338;2022-09-27T10:25:00;14.07;;;12.17;;
17872;SDS011;36318;42.620;23.338;2022-09-27T10:27:27;12.23;;;11.17;;
17872;SDS011;36318;42.620;23.338;2022-09-27T10:30:05;12.77;;;11.57;;
17872;SDS011;36318;42.620;23.338;2022-09-27T10:32:32;13.20;;;11.83;;
17872;SDS011;36318;42.620;23.338;2022-09-27T10:35:19;12.43;;;11.13;;
17872;SDS011;36318;42.620;23.338;2022-09-27T10:37:46;15.73;;;11.90;;
17872;SDS011;36318;42.620;23.338;2022-09-27T10:40:23;12.40;;;10.50;;
17872;SDS011;36318;42.620;23.338;2022-09-27T10:42:50;11.23;;;10.13;;
17872;SDS011;36318;42.620;23.338;2022-09-27T10:45:21;10.90;;;9.90;;
17872;SDS011;36318;42.620;23.338;2022-09-27T10:47:50;10.30;;;9.27;;
17872;SDS011;36318;42.620;23.338;2022-09-27T10:50:18;10.87;;;9.87;;
17872;SDS011;36318;42.620;23.338;2022-09-27T10:52:46;11.23;;;10.23;;
17872;SDS011;36318;42.620;23.338;2022-09-27T10:55:20;10.50;;;9.40;;
17872;SDS011;36318;42.620;23.338;2022-09-27T10:57:47;7.83;;;7.10;;
17872;SDS011;36318;42.620;23.338;2022-09-27T11:00:21;8.77;;;7.87;;
17872;SDS011;36318;42.620;23.338;2022-09-27T11:02:50;8.77;;;7.97;;
17872;SDS011;36318;42.620;23.338;2022-09-27T11:05:28;8.63;;;7.83;;
17872;SDS011;36318;42.620;23.338;2022-09-27T11:07:55;8.80;;;7.93;;
17872;SDS011;36318;42.620;23.338;2022-09-27T11:10:24;8.10;;;7.40;;
17872;SDS011;36318;42.620;23.338;2022-09-27T11:13:05;11.40;;;7.17;;
17872;SDS011;36318;42.620;23.338;2022-09-27T11:15:36;7.53;;;6.70;;
17872;SDS011;36318;42.620;23.338;2022-09-27T11:18:06;9.93;;;7.57;;
17872;SDS011;36318;42.620;23.338;2022-09-27T11:20:37;7.83;;;7.03;;
17872;SDS011;36318;42.620;23.338;2022-09-27T11:23:11;13.63;;;7.97;;
17872;SDS011;36318;42.620;23.338;2022-09-27T11:25:42;8.03;;;7.20;;
17872;SDS011;36318;42.620;23.338;2022-09-27T11:28:15;9.03;;;6.50;;
17872;SDS011;36318;42.620;23.338;2022-09-27T11:30:46;8.63;;;6.47;;
17872;SDS011;36318;42.620;23.338;2022-09-27T11:33:23;6.83;;;6.23;;
17872;SDS011;36318;42.620;23.338;2022-09-27T11:35:58;5.20;;;4.67;;
17872;SDS011;36318;42.620;23.338;2022-09-27T11:38:29;9.33;;;6.00;;
17872;SDS011;36318;42.620;23.338;2022-09-27T11:41:05;9.53;;;5.87;;
17872;SDS011;36318;42.620;23.338;2022-09-27T11:43:46;8.13;;;7.10;;
17872;SDS011;36318;42.620;23.338;2022-09-27T11:46:17;7.10;;;6.40;;
17872;SDS011;36318;42.620;23.338;2022-09-27T11:48:54;8.10;;;7.03;;
17872;SDS011;36318;42.620;23.338;2022-09-27T11:51:28;6.87;;;5.20;;
17872;SDS011;36318;42.620;23.338;2022-09-27T11:54:11;10.03;;;5.10;;
17872;SDS011;36318;42.620;23.338;2022-09-27T11:56:44;6.90;;;6.30;;
17872;SDS011;36318;42.620;23.338;2022-09-27T11:59:31;10.27;;;6.33;;
17872;SDS011;36318;42.620;23.338;2022-09-27T12:02:02;17.10;;;6.33;;
17872;SDS011;36318;42.620;23.338;2022-09-27T12:04:39;6.13;;;5.53;;
17872;SDS011;36318;42.620;23.338;2022-09-27T12:07:10;6.50;;;5.47;;
17872;SDS011;36318;42.620;23.338;2022-09-27T12:09:42;8.03;;;5.40;;
17872;SDS011;36318;42.620;23.338;2022-09-27T12:12:12;6.57;;;5.60;;
17872;SDS011;36318;42.620;23.338;2022-09-27T12:14:40;5.07;;;4.60;;
17872;SDS011;36318;42.620;23.338;2022-09-27T12:17:11;5.70;;;4.83;;
17872;SDS011;36318;42.620;23.338;2022-09-27T12:19:41;8.03;;;4.80;;
17872;SDS011;36318;42.620;23.338;2022-09-27T12:22:10;4.33;;;3.93;;
17872;SDS011;36318;42.620;23.338;2022-09-27T12:24:38;5.67;;;4.43;;
17872;SDS011;36318;42.620;23.338;2022-09-27T12:27:06;4.27;;;3.87;;
17872;SDS011;36318;42.620;23.338;2022-09-27T12:29:34;4.45;;;4.05;;
17872;SDS011;36318;42.620;23.338;2022-09-27T12:32:03;10.93;;;4.43;;
17872;SDS011;36318;42.620;23.338;2022-09-27T12:34:35;4.40;;;3.40;;
17872;SDS011;36318;42.620;23.338;2022-09-27T12:37:03;3.70;;;3.40;;
17872;SDS011;36318;42.620;23.338;2022-09-27T12:39:35;8.20;;;4.10;;
17872;SDS011;36318;42.620;23.338;2022-09-27T12:42:05;4.65;;;3.80;;
17872;SDS011;36318;42.620;23.338;2022-09-27T12:44:36;4.10;;;3.25;;
17872;SDS011;36318;42.620;23.338;2022-09-27T12:47:05;6.18;;;3.70;;
17872;SDS011;36318;42.620;23.338;2022-09-27T12:49:35;3.45;;;3.15;;
17872;SDS011;36318;42.620;23.338;2022-09-27T12:52:04;4.07;;;3.67;;
17872;SDS011;36318;42.620;23.338;2022-09-27T12:54:43;3.63;;;3.22;;
17872;SDS011;36318;42.620;23.338;2022-09-27T12:57:17;1.75;;;1.60;;
17872;SDS011;36318;42.620;23.338;2022-09-27T12:59:51;1.60;;;1.50;;
17872;SDS011;36318;42.620;23.338;2022-09-27T13:02:25;1.60;;;1.50;;
17872;SDS011;36318;42.620;23.338;2022-09-27T13:05:01;1.63;;;1.10;;
17872;SDS011;36318;42.620;23.338;2022-09-27T13:07:34;3.08;;;1.20;;
17872;SDS011;36318;42.620;23.338;2022-09-27T13:10:18;1.48;;;1.20;;
17872;SDS011;36318;42.620;23.338;2022-09-27T13:12:50;1.40;;;1.30;;
17872;SDS011;36318;42.620;23.338;2022-09-27T13:15:20;2.33;;;1.40;;
17872;SDS011;36318;42.620;23.338;2022-09-27T13:17:52;1.63;;;1.20;;
17872;SDS011;36318;42.620;23.338;2022-09-27T13:23:29;1.00;;;0.98;;
17872;SDS011;36318;42.620;23.338;2022-09-27T13:25:54;2.50;;;1.07;;
17872;SDS011;36318;42.620;23.338;2022-09-27T13:28:32;2.00;;;1.20;;
17872;SDS011;36318;42.620;23.338;2022-09-27T13:31:00;2.67;;;1.20;;
17872;SDS011;36318;42.620;23.338;2022-09-27T13:33:31;1.17;;;0.90;;
17872;SDS011;36318;42.620;23.338;2022-09-27T13:36:05;1.80;;;0.93;;
17872;SDS011;36318;42.620;23.338;2022-09-27T13:38:33;0.80;;;0.80;;
17872;SDS011;36318;42.620;23.338;2022-09-27T13:41:12;1.05;;;0.90;;
17872;SDS011;36318;42.620;23.338;2022-09-27T13:43:42;0.95;;;0.95;;
17872;SDS011;36318;42.620;23.338;2022-09-27T13:46:13;1.67;;;0.93;;
17872;SDS011;36318;42.620;23.338;2022-09-27T13:48:42;0.90;;;0.90;;
17872;SDS011;36318;42.620;23.338;2022-09-27T13:51:16;1.95;;;1.23;;
17872;SDS011;36318;42.620;23.338;2022-09-27T13:53:54;1.05;;;0.80;;
17872;SDS011;36318;42.620;23.338;2022-09-27T13:59:02;0.98;;;0.98;;
17872;SDS011;36318;42.620;23.338;2022-09-27T14:01:32;2.15;;;1.13;;
17872;SDS011;36318;42.620;23.338;2022-09-27T14:04:00;3.72;;;1.05;;
17872;SDS011;36318;42.620;23.338;2022-09-27T14:06:29;1.27;;;1.05;;
17872;SDS011;36318;42.620;23.338;2022-09-27T14:09:02;3.15;;;0.93;;
17872;SDS011;36318;42.620;23.338;2022-09-27T14:11:31;0.80;;;0.80;;
17872;SDS011;36318;42.620;23.338;2022-09-27T14:13:58;0.70;;;0.68;;
17872;SDS011;36318;42.620;23.338;2022-09-27T14:16:27;0.70;;;0.70;;
17872;SDS011;36318;42.620;23.338;2022-09-27T14:18:55;3.38;;;0.90;;
17872;SDS011;36318;42.620;23.338;2022-09-27T14:21:28;2.28;;;0.63;;
17872;SDS011;36318;42.620;23.338;2022-09-27T14:26:38;4.20;;;1.40;;
17872;SDS011;36318;42.620;23.338;2022-09-27T14:29:14;6.22;;;1.05;;
17872;SDS011;36318;42.620;23.338;2022-09-27T14:31:40;2.95;;;1.30;;
17872;SDS011;36318;42.620;23.338;2022-09-27T14:34:07;5.60;;;1.60;;
17872;SDS011;36318;42.620;23.338;2022-09-27T14:36:33;2.03;;;0.80;;
17872;SDS011;36318;42.620;23.338;2022-09-27T14:39:20;0.83;;;0.83;;
17872;SDS011;36318;42.620;23.338;2022-09-27T14:41:48;1.00;;;0.90;;
17872;SDS011;36318;42.620;23.338;2022-09-27T14:44:16;1.90;;;1.13;;